Latest Weather Observations for Sydney - Observatory Hill

IDN60901

Issued at 1:31 pm EST Wednesday 27 May 2015 (issued every 10 minutes, with the page automatically refreshed every 10 minutes)

About weather observations | Map of Sydney area stations | Latest observations for Sydney area | Other Formats
Station Details ID: 066062 Name: SYDNEY (OBSERVATORY HILL) Lat: -33.86 Lon: 151.21 Height: 39.0 m
Data from the previous 72 hours. | See also: Recent months at Sydney - Observatory Hill

* Apparent temperature (App Temp) for Sydney - Observatory Hill is calculated using temperature observations collected at Sydney - Observatory Hill and wind observations collected at Fort Denison, as wind observations are not currently provided for Sydney - Observatory Hill.

Date/Time
EST
Tmp

°C
App
Tmp
°C
Dew
Point
°C
Rel
Hum
%
Delta-T

°C
Wind Press
QNH
hPa
Press
MSL
hPa
Rain
since
9 am
mm
Dir
 
Spd
km/h
Gust
km/h
Spd
kts
Gust
kts
27/01:00pm 19.8 17.8 7.2 44 6.4 WSW 7 - 4 - 1022.3 1022.2 0.0
27/12:30pm 19.1 16.9 7.8 48 5.8 W 9 - 5 - 1022.9 1022.8 0.0
27/12:00pm 17.1 14.1 7.7 54 4.7 W 13 - 7 - 1023.4 1023.3 0.0
27/11:30am 16.4 13.5 8.1 58 4.2 WSW 13 - 7 - 1024.1 1024.0 0.0
27/11:00am 16.1 12.4 8.1 59 4.0 W 17 - 9 - 1024.7 1024.6 0.0
27/10:30am 14.9 12.4 8.4 65 3.3 W 11 - 6 - 1024.9 1024.8 0.0
27/10:00am 14.7 11.4 8.2 65 3.2 WNW 15 - 8 - 1025.3 1025.2 0.0
27/09:30am 13.5 10.1 7.5 67 2.9 WNW 15 - 8 - 1025.5 1025.4 0.0
27/08:30am 12.9 8.7 7.4 69 2.7 W 19 - 10 - 1025.6 1025.5 0.0
27/08:00am 12.3 8.4 9.3 82 1.5 W 20 - 11 - 1025.4 1025.3 0.0
27/07:00am 11.0 8.3 9.1 88 0.9 W 13 - 7 - 1024.5 1024.4 0.0
27/06:30am 11.0 8.7 8.9 87 1.0 WNW 11 - 6 - 1024.3 1024.2 0.0
27/06:00am 11.4 9.5 9.1 86 1.1 WNW 9 - 5 - 1024.4 1024.3 0.0
27/05:30am 11.5 8.5 9.4 87 1.1 W 15 - 8 - 1024.6 1024.5 0.0
27/05:00am 11.6 9.5 9.7 88 1.0 WNW 11 - 6 - 1024.3 1024.2 0.0
27/04:30am 11.7 9.2 9.8 88 1.0 WNW 13 - 7 - 1024.2 1024.1 0.0
27/04:00am 11.5 9.4 9.6 88 1.0 WNW 11 - 6 - 1024.4 1024.3 0.0
27/03:30am 11.6 9.5 9.7 88 1.0 WNW 11 - 6 - 1024.6 1024.5 0.0
27/02:30am 12.3 9.6 10.4 88 1.0 WNW 15 - 8 - 1025.5 1025.4 0.0
27/02:00am 12.6 10.3 10.3 86 1.2 W 13 - 7 - 1025.3 1025.2 0.0
27/01:30am 12.7 9.3 10.6 87 1.1 W 19 - 10 - 1025.5 1025.4 0.0
27/01:00am 12.9 9.6 10.8 87 1.1 W 19 - 10 - 1025.6 1025.5 0.0
27/12:30am 12.9 9.9 10.8 87 1.1 W 17 - 9 - 1025.8 1025.7 0.0
27/12:00am 13.0 10.5 10.9 87 1.1 W 15 - 8 - 1025.5 1025.4 0.0
 
Date/Time
EST
Tmp

°C
App
Tmp
°C
Dew
Point
°C
Rel
Hum
%
Delta-T

°C
Wind Press
QNH
hPa
Press
MSL
hPa
Rain
since
9 am
mm
Dir
 
Spd
km/h
Gust
km/h
Spd
kts
Gust
kts
26/11:30pm 13.2 12.7 10.7 85 1.3 ENE 4 - 2 - 1025.4 1025.3 0.0
26/11:00pm 13.2 11.3 10.4 83 1.4 W 11 - 6 - 1026.0 1025.9 0.0
26/10:30pm 13.4 10.4 10.6 83 1.5 W 17 - 9 - 1026.5 1026.4 0.0
26/10:00pm 13.5 11.4 11.2 86 1.2 W 13 - 7 - 1026.5 1026.4 0.0
26/09:30pm 13.3 11.1 10.7 84 1.4 W 13 - 7 - 1026.6 1026.5 0.0
26/09:00pm 13.6 11.5 11.3 86 1.2 W 13 - 7 - 1026.6 1026.5 0.0
26/08:30pm 13.6 11.0 10.8 83 1.5 W 15 - 8 - 1026.7 1026.6 0.0
26/08:00pm 13.8 11.7 11.0 83 1.5 W 13 - 7 - 1026.8 1026.7 0.0
26/07:30pm 14.0 11.0 10.6 80 1.8 W 17 - 9 - 1027.2 1027.1 0.0
26/07:00pm 14.3 11.5 11.3 82 1.6 W 17 - 9 - 1027.1 1027.0 0.0
26/06:30pm 14.5 12.2 11.8 84 1.5 W 15 - 8 - 1026.7 1026.6 0.0
26/05:30pm 15.5 14.5 9.0 65 3.3 SSW 4 - 2 - 1026.2 1026.1 0.0
26/05:00pm 15.7 14.7 8.9 64 3.5 S 4 - 2 - 1026.2 1026.1 0.0
26/04:30pm 16.2 14.5 8.4 60 4.0 S 7 - 4 - 1026.1 1026.0 0.0
26/04:00pm 16.7 14.7 8.7 59 4.1 SSE 9 - 5 - 1026.2 1026.1 0.0
26/03:30pm 17.3 15.2 8.4 56 4.6 S 9 - 5 - 1026.3 1026.2 0.0
26/03:00pm 17.9 15.9 8.7 55 4.7 SSE 9 - 5 - 1026.7 1026.6 0.0
26/02:30pm 18.5 16.6 9.0 54 5.0 S 9 - 5 - 1026.6 1026.5 0.0
26/02:00pm 18.5 17.1 9.6 56 4.7 S 7 - 4 - 1026.8 1026.7 0.0
26/01:30pm 18.2 16.7 9.3 56 4.7 SSW 7 - 4 - 1027.1 1027.0 0.0
26/01:00pm 17.6 15.7 9.0 57 4.4 W 9 - 5 - 1027.4 1027.3 0.0
26/12:30pm 17.7 15.4 9.1 57 4.5 WNW 11 - 6 - 1027.8 1027.8 0.0
26/12:00pm 16.3 13.3 7.8 57 4.2 WNW 13 - 7 - 1028.3 1028.3 0.0
26/11:30am 15.5 11.8 7.8 60 3.9 W 17 - 9 - 1028.9 1028.9 0.0
26/11:00am 14.5 10.7 7.5 63 3.4 W 17 - 9 - 1029.4 1029.4 0.0
26/10:30am 13.4 9.1 7.0 65 3.1 WNW 19 - 10 - 1029.6 1029.6 0.0
26/10:00am 12.9 8.4 6.9 67 2.9 WNW 20 - 11 - 1029.8 1029.8 0.0
26/09:30am 11.3 6.5 5.8 69 2.6 W 20 - 11 - 1030.0 1030.0 0.0
26/09:00am 10.4 5.0 6.5 77 1.8 W 24 - 13 - 1030.0 1030.0 0.0
26/08:30am 9.7 4.3 6.2 79 1.6 W 24 - 13 - 1030.0 1030.0 0.0
26/08:00am 9.5 4.2 6.6 82 1.3 W 24 - 13 - 1029.9 1029.9 0.0
26/07:30am 9.3 4.7 6.6 83 1.3 W 20 - 11 - 1029.5 1029.5 0.0
26/07:00am 8.8 3.8 6.6 86 1.0 W 22 - 12 - 1029.4 1029.4 0.0
26/06:30am 9.0 4.4 6.6 85 1.1 WNW 20 - 11 - 1029.1 1029.1 0.0
26/06:00am 8.8 3.8 6.4 85 1.1 W 22 - 12 - 1028.9 1028.9 0.0
26/05:30am 8.7 3.8 6.7 87 0.9 W 22 - 12 - 1028.8 1028.8 0.0
26/05:00am 8.8 4.3 6.9 88 0.9 WNW 20 - 11 - 1028.6 1028.6 0.0
26/04:30am 8.8 4.8 6.8 87 0.9 W 17 - 9 - 1028.4 1028.4 0.0
26/04:00am 9.1 4.8 7.2 88 0.9 W 19 - 10 - 1028.8 1028.8 0.0
26/03:30am 9.2 4.8 7.2 87 0.9 W 20 - 11 - 1028.9 1028.9 0.0
26/03:00am 9.3 5.1 7.6 89 0.8 WNW 19 - 10 - 1029.0 1029.0 0.0
26/02:30am 9.4 5.3 8.0 91 0.7 W 19 - 10 - 1029.2 1029.2 0.0
26/02:00am 9.5 5.6 8.6 94 0.4 W 19 - 10 - 1029.1 1029.1 0.0
26/01:30am 9.9 6.1 9.1 95 0.4 WNW 19 - 10 - 1029.2 1029.2 0.0
26/01:00am 10.2 6.5 9.4 95 0.4 WNW 19 - 10 - 1029.2 1029.2 0.0
26/12:30am 10.5 7.6 9.6 94 0.5 W 15 - 8 - 1029.2 1029.2 0.0
26/12:00am 10.8 8.0 9.9 94 0.5 WNW 15 - 8 - 1029.4 1029.4 0.0
 
Date/Time
EST
Tmp

°C
App
Tmp
°C
Dew
Point
°C
Rel
Hum
%
Delta-T

°C
Wind Press
QNH
hPa
Press
MSL
hPa
Rain
since
9 am
mm
Dir
 
Spd
km/h
Gust
km/h
Spd
kts
Gust
kts
25/11:30pm 11.0 8.6 9.9 93 0.6 W 13 - 7 - 1029.5 1029.5 0.0
25/11:00pm 11.6 8.9 10.3 92 0.7 W 15 - 8 - 1029.7 1029.7 0.0
25/10:30pm 12.1 9.4 10.5 90 0.8 W 15 - 8 - 1029.6 1029.6 0.0
25/10:00pm 12.2 9.6 10.8 91 0.7 W 15 - 8 - 1029.6 1029.6 0.0
25/09:30pm 12.5 9.7 11.4 93 0.6 W 17 - 9 - 1029.7 1029.7 0.0
25/09:00pm 12.8 10.0 11.4 91 0.7 W 17 - 9 - 1029.9 1029.9 0.0
25/08:30pm 13.2 11.2 11.6 90 0.9 W 13 - 7 - 1029.7 1029.7 0.0
25/08:00pm 13.4 11.5 11.8 90 0.9 W 13 - 7 - 1029.6 1029.6 0.0
25/07:30pm 13.8 11.9 11.7 87 1.1 W 13 - 7 - 1029.4 1029.4 0.0
25/07:00pm 14.1 12.9 11.6 85 1.3 W 9 - 5 - 1029.1 1029.1 0.0
25/06:30pm 14.6 13.3 11.2 80 1.8 WNW 9 - 5 - 1028.8 1028.8 0.0
25/06:00pm 14.9 14.2 11.3 79 1.9 WNW 6 - 3 - 1028.3 1028.3 0.0
25/05:30pm 15.4 14.6 9.5 68 3.1 N 4 - 2 - 1028.3 1028.3 0.0
25/05:00pm 16.2 15.8 9.6 65 3.4 WSW 2 - 1 - 1028.6 1028.6 0.0
25/04:30pm 16.6 15.6 8.8 60 4.0 NE 4 - 2 - 1028.3 1028.3 0.0
25/04:00pm 16.9 15.8 8.3 57 4.4 NNE 4 - 2 - 1028.5 1028.5 0.0
25/03:30pm 17.9 16.2 8.5 54 4.8 NNE 7 - 4 - 1028.6 1028.6 0.0
25/03:00pm 18.2 16.5 8.2 52 5.1 NNW 7 - 4 - 1028.5 1028.5 0.0
25/02:30pm 18.3 16.3 8.8 54 4.9 NNW 9 - 5 - 1028.6 1028.6 0.0
25/02:00pm 18.3 17.8 7.7 50 5.4 CALM 0 - 0 - 1028.8 1028.8 0.0
25/01:30pm 18.5 17.7 9.8 57 4.6 W 4 - 2 - 1029.0 1029.0 0.0
25/01:00pm 16.9 15.9 8.8 59 4.1 WNW 4 - 2 - 1029.2 1029.2 0.0
25/12:30pm 17.2 15.4 9.4 60 4.1 W 9 - 5 - 1029.4 1029.4 0.0
25/12:00pm 15.6 13.5 8.4 62 3.6 W 9 - 5 - 1029.9 1029.9 0.0
25/11:30am 14.9 13.2 8.2 64 3.4 W 7 - 4 - 1030.6 1030.6 0.0
25/11:00am 14.3 10.7 8.3 67 3.0 W 17 - 9 - 1031.4 1031.4 0.0
25/10:30am 13.8 11.6 7.8 67 3.0 W 9 - 5 - 1031.6 1031.6 0.0
25/10:00am 13.1 9.5 8.4 73 2.3 W 17 - 9 - 1032.2 1032.2 0.0
25/09:30am 12.4 9.3 8.9 79 1.8 WNW 15 - 8 - 1032.4 1032.4 0.0
25/09:00am 11.4 9.0 8.8 84 1.3 WNW 11 - 6 - 1032.2 1032.2 0.0
25/08:30am 11.0 8.6 8.8 86 1.1 WNW 11 - 6 - 1032.0 1032.0 0.0
25/08:00am 10.3 7.1 8.6 89 0.8 W 15 - 8 - 1032.2 1032.2 0.0
25/07:30am 9.9 6.7 8.3 90 0.8 W 15 - 8 - 1031.8 1031.8 0.0
25/07:00am 9.7 6.4 8.1 90 0.8 W 15 - 8 - 1031.8 1031.8 0.0
25/06:30am 9.8 6.2 8.2 90 0.8 W 17 - 9 - 1031.7 1031.7 0.0
25/06:00am 9.8 6.2 8.2 90 0.8 W 17 - 9 - 1031.6 1031.6 0.0
25/05:30am 9.6 6.3 8.0 90 0.8 W 15 - 8 - 1031.4 1031.4 0.0
25/05:00am 9.4 6.0 7.7 89 0.8 WNW 15 - 8 - 1031.0 1031.0 0.0
25/04:30am 9.6 5.3 7.7 88 0.9 W 20 - 11 - 1031.4 1031.4 0.0
25/04:00am 10.0 6.0 8.3 89 0.8 WNW 19 - 10 - 1031.4 1031.4 0.0
25/03:30am 10.2 7.7 8.3 88 0.9 WNW 11 - 6 - 1031.3 1031.3 0.0
25/03:00am 10.4 6.2 8.2 86 1.1 W 20 - 11 - 1031.5 1031.5 0.0
25/02:30am 10.4 5.9 8.5 88 0.9 W 22 - 12 - 1031.9 1031.9 0.0
25/02:00am 10.6 6.7 8.5 87 1.0 W 19 - 10 - 1031.8 1031.8 0.0
25/01:30am 10.0 5.8 8.3 89 0.8 W 20 - 11 - 1031.8 1031.8 0.0
25/01:00am 10.4 6.8 8.5 88 0.9 WNW 17 - 9 - 1031.7 1031.7 0.0
25/12:30am 10.9 6.8 8.8 87 1.0 WNW 20 - 11 - 1032.2 1032.2 0.0
25/12:00am 11.3 7.4 8.7 84 1.3 W 19 - 10 - 1032.4 1032.4 0.0
 
Date/Time
EST
Tmp

°C
App
Tmp
°C
Dew
Point
°C
Rel
Hum
%
Delta-T

°C
Wind Press
QNH
hPa
Press
MSL
hPa
Rain
since
9 am
mm
Dir
 
Spd
km/h
Gust
km/h
Spd
kts
Gust
kts
24/11:30pm 11.7 7.9 9.1 84 1.3 W 19 - 10 - 1032.5 1032.5 0.0
24/11:00pm 11.8 8.6 9.9 88 1.0 W 17 - 9 - 1032.4 1032.4 0.0
24/10:30pm 12.0 10.8 10.4 90 0.8 WNW 7 - 4 - 1032.1 1032.1 0.0
24/10:00pm 12.2 11.6 10.4 89 0.9 WNW 4 - 2 - 1032.4 1032.4 0.0
24/09:30pm 12.6 11.7 10.8 89 0.9 WNW 6 - 3 - 1032.5 1032.5 0.0
24/09:00pm 12.6 11.5 10.7 88 1.0 WNW 7 - 4 - 1032.4 1032.4 0.0
24/08:30pm 13.1 12.7 11.0 87 1.1 WNW 4 - 2 - 1032.2 1032.2 0.0
24/08:00pm 13.4 12.5 10.6 83 1.5 NW 6 - 3 - 1032.1 1032.1 0.0
24/07:30pm 14.1 12.8 9.3 73 2.5 N 6 - 3 - 1031.8 1031.8 0.0
24/07:00pm 15.3 14.0 7.8 61 3.7 E 4 - 2 - 1031.7 1031.7 0.0
24/06:30pm 14.8 13.5 7.6 62 3.6 N 4 - 2 - 1031.8 1031.8 0.0
24/06:00pm 15.1 13.7 7.2 59 3.9 NNW 4 - 2 - 1031.7 1031.7 0.0
24/05:30pm 15.6 13.8 7.1 57 4.2 SE 6 - 3 - 1031.4 1031.4 0.0
24/05:00pm 16.0 14.0 7.0 55 4.4 SE 7 - 4 - 1031.1 1031.1 0.0
24/04:30pm 16.4 14.4 7.1 54 4.6 SE 7 - 4 - 1030.9 1030.9 0.0
24/04:00pm 17.2 14.7 6.7 50 5.2 ESE 9 - 5 - 1030.7 1030.7 0.0
24/03:30pm 17.8 14.9 6.7 48 5.5 ESE 11 - 6 - 1030.7 1030.7 0.0
24/03:00pm 18.9 16.9 6.4 44 6.2 ESE 6 - 3 - 1030.7 1030.7 0.0
24/02:30pm 19.7 18.0 7.4 45 6.3 ENE 6 - 3 - 1030.7 1030.7 0.0
24/02:00pm 19.7 18.1 6.4 42 6.6 ESE 4 - 2 - 1030.5 1030.5 0.0

Latest Capital City Observations: Canberra | Sydney | Melbourne | Brisbane | Adelaide | Perth | Hobart | Darwin

Other Formats:

Comma delimited format used in spreadsheet applications
http://www.bom.gov.au/fwo/IDN60901/IDN60901.94768.axf

JavaScript Object Notation format (JSON) in row-major order
http://www.bom.gov.au/fwo/IDN60901/IDN60901.94768.json